createdAt,value
2018-10-05T04:01:26.654Z,95.50
2018-10-05T04:03:54.800Z,95.50
2018-10-05T04:06:22.941Z,95.30
2018-10-05T04:08:51.074Z,95.30
2018-10-05T04:11:19.223Z,95.10
2018-10-05T04:13:47.408Z,95.00
2018-10-05T04:16:15.564Z,94.90
2018-10-05T04:18:43.695Z,94.60
2018-10-05T04:21:11.888Z,94.50
2018-10-05T04:23:40.051Z,94.50
2018-10-05T04:26:08.196Z,94.50
2018-10-05T04:28:36.376Z,94.40
2018-10-05T04:31:04.522Z,94.30
2018-10-05T04:33:32.664Z,94.20
2018-10-05T04:36:00.833Z,94.30
2018-10-05T04:38:28.972Z,94.30
2018-10-05T04:40:57.114Z,94.30
2018-10-05T04:43:25.256Z,94.20
2018-10-05T04:45:53.431Z,94.30
2018-10-05T04:48:22.105Z,94.30
2018-10-05T04:50:50.279Z,94.30
2018-10-05T17:19:22.807Z,70.20
2018-10-05T17:21:51.006Z,70.70
2018-10-05T17:24:19.193Z,70.70
2018-10-05T17:26:47.406Z,70.80
2018-10-05T17:29:15.604Z,70.90
2018-10-05T17:31:43.765Z,71.20
2018-10-05T17:34:11.941Z,71.40
2018-10-05T17:36:40.127Z,71.40
2018-10-05T17:39:09.477Z,71.40
2018-10-05T17:41:37.696Z,71.40
2018-10-05T17:44:06.141Z,71.90
2018-10-05T17:46:34.412Z,71.70
2018-10-05T17:49:02.625Z,72.70
2018-10-05T17:51:30.895Z,73.00
2018-10-05T17:53:59.150Z,73.50
2018-10-05T17:56:28.013Z,74.30
2018-10-05T17:58:56.189Z,74.40
2018-10-05T18:01:25.579Z,74.60
2018-10-05T18:03:53.720Z,75.40
2018-10-05T18:06:22.111Z,76.10
2018-10-05T18:08:50.098Z,76.00
2018-10-05T18:11:18.372Z,75.90
2018-10-05T18:13:46.686Z,75.70
2018-10-05T18:16:15.202Z,76.70
2018-10-05T18:18:43.396Z,76.30
2018-10-05T18:21:11.735Z,76.40
2018-10-05T18:23:39.867Z,76.90
2018-10-05T18:26:08.108Z,77.20
2018-10-05T18:28:36.305Z,77.60
2018-10-05T18:31:04.517Z,77.70
2018-10-05T18:33:32.743Z,78.30
2018-10-05T18:36:01.284Z,78.80
2018-10-05T18:38:29.529Z,78.40
2018-10-05T18:40:57.694Z,79.70
2018-10-05T18:43:25.985Z,79.80
2018-10-05T18:45:54.133Z,80.00
2018-10-05T18:48:22.371Z,80.10
2018-10-05T18:50:50.583Z,80.20
2018-10-05T18:53:18.860Z,80.00
2018-10-05T18:55:47.079Z,80.00
2018-10-05T18:58:15.301Z,80.20
2018-10-05T19:00:43.462Z,80.20
2018-10-05T19:03:11.696Z,80.80
2018-10-05T19:05:39.970Z,80.70
2018-10-05T19:08:08.164Z,80.90
2018-10-05T19:10:36.360Z,81.50
2018-10-05T19:13:04.500Z,82.00
2018-10-05T19:15:32.641Z,82.80
2018-10-05T19:18:00.901Z,82.80
2018-10-05T19:20:29.048Z,82.80
2018-10-05T19:22:57.253Z,83.30
2018-10-05T19:25:25.384Z,84.30
2018-10-05T19:27:53.643Z,84.40
2018-10-05T19:30:21.827Z,84.50
2018-10-05T19:32:49.957Z,84.80
2018-10-05T19:35:18.106Z,85.10
2018-10-05T19:37:46.287Z,85.10
2018-10-05T19:40:14.492Z,85.70
2018-10-05T19:42:42.648Z,86.00
2018-10-05T19:45:10.856Z,86.20
2018-10-05T19:47:39.091Z,87.10
2018-10-05T19:50:07.232Z,86.90
2018-10-05T19:52:35.460Z,87.10
2018-10-05T19:55:03.616Z,87.60
2018-10-05T19:57:31.773Z,87.60
2018-10-05T19:59:59.921Z,88.00
2018-10-05T20:02:28.107Z,88.30
2018-10-05T20:04:56.272Z,88.80
2018-10-05T20:07:24.460Z,88.60
2018-10-05T20:09:52.695Z,88.60
2018-10-05T20:12:20.792Z,88.70
2018-10-05T20:14:48.936Z,88.90
2018-10-05T20:17:17.078Z,89.50
2018-10-05T20:19:45.340Z,89.30
2018-10-05T20:22:13.505Z,89.40
2018-10-05T20:24:41.694Z,89.70
2018-10-05T20:27:09.916Z,89.70
2018-10-05T20:29:38.089Z,89.20
2018-10-05T20:32:06.457Z,89.00
2018-10-05T20:34:34.623Z,89.70
2018-10-05T20:37:03.038Z,89.90
2018-10-05T20:39:31.008Z,89.50
2018-10-05T20:41:59.155Z,89.60
2018-10-05T20:44:27.397Z,90.30
2018-10-05T20:46:55.542Z,90.70
2018-10-05T20:49:23.721Z,90.20
2018-10-05T20:51:51.977Z,90.20
2018-10-05T20:54:20.188Z,90.50
2018-10-05T20:56:48.341Z,90.50
2018-10-05T20:59:16.556Z,90.70
